createdAt,value
2022-11-13T00:00:31.730Z,81.43
2022-11-13T00:03:38.926Z,75.63
2022-11-13T00:06:43.203Z,76.60
2022-11-13T00:09:47.458Z,74.40
2022-11-13T00:12:56.726Z,80.28
2022-11-13T00:16:05.352Z,73.63
2022-11-13T00:19:09.533Z,77.70
2022-11-13T00:22:13.868Z,75.63
2022-11-13T00:25:21.080Z,76.00
2022-11-13T00:28:25.838Z,100.97
2022-11-13T00:31:31.337Z,68.27
2022-11-13T00:34:50.758Z,61.53
2022-11-13T00:37:55.127Z,63.67
2022-11-13T00:41:02.424Z,64.75
2022-11-13T00:44:06.975Z,62.40
2022-11-13T00:47:16.494Z,60.10
2022-11-13T00:50:20.578Z,61.65
2022-11-13T00:53:25.105Z,66.32
2022-11-13T00:56:29.557Z,66.53
2022-11-13T00:59:34.065Z,55.38
2022-11-13T01:02:38.190Z,56.17
2022-11-13T01:05:44.816Z,59.85
2022-11-13T01:08:49.764Z,54.50
2022-11-13T01:11:54.635Z,51.65
2022-11-13T01:14:59.705Z,52.58
2022-11-13T01:18:04.328Z,49.10
2022-11-13T01:21:11.842Z,54.70
2022-11-13T01:24:16.087Z,57.13
2022-11-13T01:27:20.474Z,52.40
2022-11-13T01:30:24.599Z,48.17
2022-11-13T01:33:32.216Z,48.50
2022-11-13T01:36:36.697Z,43.30
2022-11-13T01:39:44.278Z,48.15
2022-11-13T01:42:48.755Z,39.05
2022-11-13T01:45:58.842Z,42.00
2022-11-13T01:49:12.576Z,44.65
2022-11-13T01:52:27.234Z,43.42
2022-11-13T01:55:31.413Z,43.38
2022-11-13T01:58:40.678Z,40.70
2022-11-13T02:01:45.007Z,37.72
2022-11-13T02:04:49.169Z,40.50
2022-11-13T02:07:53.606Z,41.55
2022-11-13T02:10:58.249Z,42.85
2022-11-13T02:14:04.274Z,37.00
2022-11-13T02:17:13.102Z,43.13
2022-11-13T02:20:27.873Z,39.80
2022-11-13T02:23:48.618Z,39.40
2022-11-13T02:26:55.776Z,39.97
2022-11-13T02:30:12.831Z,38.50
2022-11-13T02:33:30.350Z,37.08
2022-11-13T02:36:35.858Z,42.05
2022-11-13T02:39:40.889Z,35.13
2022-11-13T02:42:45.563Z,42.53
2022-11-13T02:45:49.885Z,44.13
2022-11-13T02:48:54.607Z,34.45
2022-11-13T02:51:58.844Z,40.88
2022-11-13T02:55:04.206Z,42.10
2022-11-13T02:58:08.301Z,36.80
2022-11-13T03:01:12.996Z,36.65
2022-11-13T03:04:17.428Z,41.40
2022-11-13T03:07:21.710Z,43.35
2022-11-13T03:10:26.163Z,38.58
2022-11-13T03:13:32.204Z,44.15
2022-11-13T03:16:36.741Z,43.38
2022-11-13T03:19:41.222Z,45.97
2022-11-13T03:22:45.623Z,36.08
2022-11-13T03:25:49.883Z,36.38
2022-11-13T03:28:54.574Z,37.85
2022-11-13T03:31:58.822Z,42.63
2022-11-13T03:35:03.481Z,35.92
2022-11-13T03:38:07.774Z,33.60
2022-11-13T03:41:14.805Z,34.42
2022-11-13T03:44:19.256Z,38.10
2022-11-13T03:47:23.623Z,36.20
2022-11-13T03:50:28.030Z,36.75
2022-11-13T03:53:32.694Z,38.25
2022-11-13T03:56:36.743Z,37.95
2022-11-13T03:59:41.009Z,37.88
2022-11-13T04:02:45.382Z,37.03
2022-11-13T04:05:50.756Z,42.15
2022-11-13T04:08:54.947Z,34.67
2022-11-13T04:11:59.395Z,39.38
2022-11-13T04:15:04.035Z,36.55
2022-11-13T04:18:11.728Z,37.17
2022-11-13T04:21:18.561Z,38.47
2022-11-13T04:24:22.835Z,34.58
2022-11-13T04:27:27.390Z,33.97
2022-11-13T04:30:31.750Z,32.13
2022-11-13T04:33:36.289Z,39.13
2022-11-13T04:36:40.373Z,30.63
2022-11-13T04:39:45.125Z,31.38
2022-11-13T04:42:52.198Z,29.48
2022-11-13T04:45:56.556Z,29.52
2022-11-13T04:49:01.138Z,32.80
2022-11-13T04:52:08.906Z,32.70
2022-11-13T04:55:13.603Z,35.17
2022-11-13T04:58:17.821Z,32.85
2022-11-13T05:01:22.669Z,30.90
2022-11-13T05:04:26.663Z,31.35
2022-11-13T05:07:31.286Z,28.52
2022-11-13T05:10:35.689Z,32.85
2022-11-13T05:13:39.995Z,30.90
2022-11-13T05:16:44.951Z,27.13
2022-11-13T05:19:49.133Z,26.75
2022-11-13T05:22:53.746Z,25.50
2022-11-13T05:26:04.268Z,27.13
2022-11-13T05:29:08.889Z,30.05
2022-11-13T05:32:16.023Z,24.98
2022-11-13T05:35:20.861Z,31.85
2022-11-13T05:38:25.495Z,27.13
2022-11-13T05:41:33.118Z,22.73
2022-11-13T05:44:37.356Z,27.15
2022-11-13T05:47:41.782Z,21.60
2022-11-13T05:50:46.274Z,27.88
2022-11-13T05:53:51.202Z,29.98
2022-11-13T05:56:55.119Z,30.15
2022-11-13T05:59:59.387Z,32.50
2022-11-13T06:03:03.795Z,28.60
2022-11-13T06:06:11.465Z,27.90
2022-11-13T06:09:18.903Z,31.33
2022-11-13T06:12:32.931Z,29.50
2022-11-13T06:15:37.478Z,28.70
2022-11-13T06:18:43.411Z,28.40
2022-11-13T06:21:50.442Z,29.42
2022-11-13T06:24:54.722Z,28.30
2022-11-13T06:27:59.163Z,26.65
2022-11-13T06:31:10.638Z,23.92
2022-11-13T06:34:15.639Z,24.92
2022-11-13T06:37:19.819Z,22.90
2022-11-13T06:40:24.192Z,23.83
2022-11-13T06:43:29.090Z,18.13
2022-11-13T06:46:33.589Z,17.38
2022-11-13T06:49:40.823Z,16.70
2022-11-13T06:52:45.298Z,16.85
2022-11-13T06:55:50.775Z,16.67
2022-11-13T06:58:56.181Z,18.70
2022-11-13T07:02:00.476Z,15.10
2022-11-13T07:05:04.914Z,13.57
2022-11-13T07:08:09.229Z,13.57
2022-11-13T07:11:20.228Z,15.07
2022-11-13T07:14:26.959Z,14.35
2022-11-13T07:17:31.513Z,18.50
2022-11-13T07:20:35.793Z,15.55
2022-11-13T07:23:43.286Z,17.30
2022-11-13T07:26:50.485Z,15.93
2022-11-13T07:29:59.521Z,11.25
2022-11-13T07:33:07.367Z,15.15
2022-11-13T07:36:14.493Z,16.42
2022-11-13T07:39:18.769Z,15.82
2022-11-13T07:42:23.286Z,11.93
2022-11-13T07:45:28.811Z,16.80
2022-11-13T07:48:33.057Z,13.93
2022-11-13T07:51:37.714Z,15.30
2022-11-13T07:54:42.510Z,16.13
2022-11-13T07:57:50.003Z,17.43
2022-11-13T08:01:05.432Z,12.45
2022-11-13T08:04:09.631Z,13.32
2022-11-13T08:07:14.323Z,20.98
2022-11-13T08:10:20.202Z,17.05
2022-11-13T08:13:24.864Z,15.50
2022-11-13T08:16:29.369Z,16.65
2022-11-13T08:19:33.500Z,15.52
2022-11-13T08:22:38.035Z,14.07
2022-11-13T08:25:43.974Z,16.08
2022-11-13T08:28:49.035Z,15.30
2022-11-13T08:31:53.575Z,11.67
2022-11-13T08:34:57.606Z,16.73
2022-11-13T08:38:07.002Z,12.30
2022-11-13T08:41:11.546Z,15.55
2022-11-13T08:44:15.623Z,13.02
2022-11-13T08:47:19.928Z,10.23
2022-11-13T08:50:25.941Z,13.05
2022-11-13T08:56:34.134Z,12.73
2022-11-13T08:59:38.761Z,14.02
2022-11-13T09:02:44.474Z,11.98
2022-11-13T09:05:57.918Z,12.23
2022-11-13T09:09:05.059Z,11.88
2022-11-13T09:12:09.238Z,12.85
2022-11-13T09:15:20.313Z,12.18
2022-11-13T09:18:31.426Z,17.52
2022-11-13T09:21:35.684Z,10.77
2022-11-13T09:24:39.795Z,15.40
2022-11-13T09:27:44.014Z,13.90
2022-11-13T09:30:48.710Z,16.17
2022-11-13T09:33:53.341Z,11.25
2022-11-13T09:37:01.881Z,10.77
2022-11-13T09:40:07.751Z,13.55
2022-11-13T09:43:24.882Z,10.73
2022-11-13T09:46:56.396Z,11.48
2022-11-13T09:50:23.075Z,12.43
2022-11-13T09:53:33.672Z,10.32
2022-11-13T09:56:43.622Z,14.18
2022-11-13T10:00:05.700Z,9.90
2022-11-13T10:03:23.990Z,11.65
2022-11-13T10:07:03.849Z,12.55
2022-11-13T10:10:21.770Z,11.18
2022-11-13T10:13:32.763Z,13.25
2022-11-13T10:17:00.537Z,13.98
2022-11-13T10:20:12.535Z,16.20
2022-11-13T10:23:44.279Z,17.08
2022-11-13T10:26:48.992Z,11.20
2022-11-13T10:29:53.374Z,10.63
2022-11-13T10:33:05.923Z,9.80
2022-11-13T10:36:37.877Z,10.20
2022-11-13T10:39:45.863Z,10.77
2022-11-13T10:42:50.460Z,12.98
2022-11-13T10:46:00.835Z,10.13
2022-11-13T10:49:13.951Z,15.70
2022-11-13T10:52:25.212Z,11.27
2022-11-13T10:55:39.801Z,14.25
2022-11-13T10:58:44.428Z,9.40
2022-11-13T11:01:50.378Z,9.13
2022-11-13T11:08:11.225Z,8.50
2022-11-13T11:14:57.311Z,7.75
2022-11-13T11:18:17.031Z,7.65
2022-11-13T11:21:29.014Z,8.38
2022-11-13T11:24:42.203Z,6.80
2022-11-13T11:27:51.203Z,7.32
2022-11-13T11:31:22.899Z,7.22
2022-11-13T11:34:35.247Z,6.88
2022-11-13T11:38:02.744Z,5.88
2022-11-13T11:41:16.780Z,7.40
2022-11-13T11:44:42.601Z,6.85
2022-11-13T11:47:50.304Z,6.13
2022-11-13T11:51:31.379Z,5.72
2022-11-13T11:55:13.006Z,5.20
2022-11-13T11:59:02.717Z,5.95
2022-11-13T12:02:47.275Z,6.60
2022-11-13T12:06:25.395Z,5.55
2022-11-13T12:09:38.010Z,6.18
2022-11-13T12:13:11.470Z,9.77
2022-11-13T12:16:30.001Z,7.57
2022-11-13T12:19:48.039Z,6.45
2022-11-13T12:22:58.509Z,5.80
2022-11-13T12:26:30.729Z,6.18
2022-11-13T12:29:52.209Z,6.10
2022-11-13T12:33:05.897Z,8.13
2022-11-13T12:36:12.816Z,5.70
2022-11-13T12:39:38.426Z,7.55
2022-11-13T12:45:57.439Z,8.05
2022-11-13T12:49:01.910Z,7.13
2022-11-13T12:52:15.689Z,5.38
2022-11-13T12:55:29.222Z,6.18
2022-11-13T12:58:33.547Z,4.97
2022-11-13T13:01:46.035Z,5.03
2022-11-13T13:05:10.986Z,6.93
2022-11-13T13:11:44.853Z,7.00
2022-11-13T13:15:11.799Z,6.63
2022-11-13T13:18:19.067Z,7.18
2022-11-13T13:21:26.395Z,8.70
2022-11-13T13:24:34.818Z,5.13
2022-11-13T13:27:39.393Z,5.20
2022-11-13T13:31:05.712Z,4.93
2022-11-13T13:34:46.385Z,7.10
2022-11-13T13:38:08.470Z,4.40
2022-11-13T13:41:28.664Z,4.35
2022-11-13T13:44:40.410Z,4.75
2022-11-13T13:47:48.271Z,5.10
2022-11-13T13:50:53.554Z,6.60
2022-11-13T13:53:59.843Z,8.77
2022-11-13T13:57:03.982Z,4.88
2022-11-13T14:00:16.608Z,5.35
2022-11-13T14:03:23.040Z,6.10
2022-11-13T14:06:27.411Z,6.38
2022-11-13T14:09:31.988Z,5.90
2022-11-13T14:15:45.181Z,6.40
2022-11-13T14:21:58.490Z,4.78
2022-11-13T14:25:03.188Z,6.53
2022-11-13T14:31:17.968Z,8.35
2022-11-13T14:34:23.984Z,6.63
2022-11-13T14:37:33.908Z,6.55
2022-11-13T14:40:38.293Z,6.45
2022-11-13T14:43:50.723Z,7.05
2022-11-13T14:47:05.134Z,5.35
2022-11-13T14:50:20.824Z,5.83
2022-11-13T14:53:34.624Z,10.02
2022-11-13T14:56:43.324Z,7.95
2022-11-13T14:59:47.544Z,7.75
2022-11-13T15:02:51.782Z,7.47
2022-11-13T15:05:56.333Z,7.13
2022-11-13T15:09:00.971Z,7.72
2022-11-13T15:12:05.346Z,10.13
2022-11-13T15:15:14.858Z,11.88
2022-11-13T15:18:20.386Z,8.55
2022-11-13T15:21:24.959Z,12.50
2022-11-13T15:24:29.290Z,9.20
2022-11-13T15:27:38.969Z,11.20
2022-11-13T15:30:47.160Z,12.38
2022-11-13T15:33:51.306Z,11.70
2022-11-13T15:36:55.984Z,8.98
2022-11-13T15:40:00.567Z,13.20
2022-11-13T15:43:06.260Z,13.25
2022-11-13T15:46:16.117Z,11.00
2022-11-13T15:49:20.158Z,17.83
2022-11-13T15:52:26.474Z,11.23
2022-11-13T15:55:32.086Z,12.75
2022-11-13T15:58:37.684Z,14.55
2022-11-13T16:01:42.479Z,16.92
2022-11-13T16:04:56.087Z,13.07
2022-11-13T16:08:01.126Z,14.52
2022-11-13T16:11:05.588Z,15.88
2022-11-13T16:14:10.900Z,12.68
2022-11-13T16:17:20.790Z,13.50
2022-11-13T16:20:25.171Z,13.93
2022-11-13T16:23:30.502Z,18.48
2022-11-13T16:26:34.865Z,14.38
2022-11-13T16:29:39.131Z,13.52
2022-11-13T16:32:43.331Z,15.57
2022-11-13T16:35:49.150Z,19.60
2022-11-13T16:38:55.600Z,13.90
2022-11-13T16:42:00.157Z,17.30
2022-11-13T16:45:04.952Z,13.20
2022-11-13T16:48:15.977Z,14.75
2022-11-13T16:51:20.403Z,14.05
2022-11-13T16:54:27.397Z,13.13
2022-11-13T16:57:31.746Z,14.75
2022-11-13T17:00:36.014Z,15.90
2022-11-13T17:03:40.329Z,19.45
2022-11-13T17:06:44.825Z,22.00
2022-11-13T17:09:58.899Z,20.92
2022-11-13T17:13:09.866Z,21.65
2022-11-13T17:16:14.679Z,21.02
2022-11-13T17:19:19.398Z,20.17
2022-11-13T17:22:23.838Z,18.73
2022-11-13T17:25:28.367Z,23.08
2022-11-13T17:28:32.837Z,29.35
2022-11-13T17:31:37.433Z,23.40
2022-11-13T17:34:44.785Z,23.90
2022-11-13T17:37:49.157Z,21.40
2022-11-13T17:40:56.373Z,19.73
2022-11-13T17:44:03.498Z,18.38
2022-11-13T17:47:08.258Z,19.52
2022-11-13T17:50:12.970Z,22.45
2022-11-13T17:53:17.159Z,25.35
2022-11-13T17:56:21.398Z,23.92
2022-11-13T17:59:25.759Z,27.17
2022-11-13T18:02:30.563Z,37.63
2022-11-13T18:05:40.556Z,38.65
2022-11-13T18:08:45.638Z,31.15
2022-11-13T18:11:49.794Z,27.23
2022-11-13T18:14:56.991Z,30.65
2022-11-13T18:18:01.241Z,30.35
2022-11-13T18:21:23.915Z,33.28
2022-11-13T18:24:28.150Z,32.08
2022-11-13T18:27:32.547Z,32.65
2022-11-13T18:30:39.262Z,28.80
2022-11-13T18:33:44.461Z,23.40
2022-11-13T18:36:49.101Z,23.27
2022-11-13T18:39:53.458Z,21.75
2022-11-13T18:42:57.315Z,25.67
2022-11-13T18:46:07.074Z,33.35
2022-11-13T18:49:11.162Z,33.00
2022-11-13T18:52:15.967Z,31.83
2022-11-13T18:55:20.190Z,35.17
2022-11-13T18:58:24.878Z,35.50
2022-11-13T19:01:31.766Z,30.58
2022-11-13T19:04:36.299Z,28.08
2022-11-13T19:07:40.820Z,27.63
2022-11-13T19:10:44.978Z,24.95
2022-11-13T19:13:49.838Z,26.05
2022-11-13T19:16:53.890Z,35.55
2022-11-13T19:19:58.526Z,35.28
2022-11-13T19:23:07.882Z,32.75
2022-11-13T19:26:13.153Z,32.60
2022-11-13T19:29:17.517Z,31.50
2022-11-13T19:32:22.136Z,31.90
2022-11-13T19:35:26.947Z,42.60
2022-11-13T19:38:31.752Z,40.85
2022-11-13T19:41:36.260Z,44.25
2022-11-13T19:44:40.307Z,40.00
2022-11-13T19:47:44.696Z,34.72
2022-11-13T19:50:49.482Z,35.70
2022-11-13T19:53:55.902Z,31.70
2022-11-13T19:57:00.230Z,35.72
2022-11-13T20:00:09.055Z,37.65
2022-11-13T20:03:16.490Z,42.97
2022-11-13T20:06:21.037Z,36.90
2022-11-13T20:09:25.354Z,35.33
2022-11-13T20:12:30.562Z,31.25
2022-11-13T20:15:35.257Z,37.33
2022-11-13T20:18:41.266Z,31.48
2022-11-13T20:21:45.793Z,27.60
2022-11-13T20:24:50.280Z,25.42
2022-11-13T20:27:59.608Z,25.20
2022-11-13T20:31:20.368Z,27.30
2022-11-13T20:34:24.835Z,21.73
2022-11-13T20:37:29.016Z,23.60
2022-11-13T20:40:33.542Z,23.75
2022-11-13T20:43:38.507Z,23.52
2022-11-13T20:46:43.038Z,24.92
2022-11-13T20:49:47.812Z,24.92
2022-11-13T20:52:52.177Z,25.37
2022-11-13T20:55:56.645Z,23.55
2022-11-13T20:59:03.970Z,29.58
2022-11-13T21:02:10.477Z,29.10
2022-11-13T21:05:15.325Z,27.50
2022-11-13T21:08:19.915Z,30.05
2022-11-13T21:11:29.411Z,31.50
2022-11-13T21:14:33.831Z,26.33
2022-11-13T21:17:38.190Z,25.00
2022-11-13T21:20:42.326Z,27.90
2022-11-13T21:23:47.784Z,28.02
2022-11-13T21:26:52.006Z,33.45
2022-11-13T21:29:56.643Z,28.13
2022-11-13T21:33:01.205Z,27.95
2022-11-13T21:36:23.223Z,29.38
2022-11-13T21:39:27.121Z,26.58
2022-11-13T21:42:31.872Z,30.63
2022-11-13T21:45:36.046Z,29.08
2022-11-13T21:48:41.891Z,30.08
2022-11-13T21:51:45.769Z,30.60
2022-11-13T21:54:49.914Z,33.03
2022-11-13T21:57:54.421Z,30.08
2022-11-13T22:00:59.567Z,29.48
2022-11-13T22:04:03.897Z,28.75
2022-11-13T22:07:08.311Z,33.40
2022-11-13T22:10:12.830Z,29.92
2022-11-13T22:13:17.445Z,29.77
2022-11-13T22:16:22.741Z,32.03
2022-11-13T22:19:30.155Z,30.20
2022-11-13T22:22:36.879Z,31.23
2022-11-13T22:25:41.495Z,32.42
2022-11-13T22:28:46.932Z,29.35
2022-11-13T22:34:55.315Z,30.40
2022-11-13T22:38:02.157Z,29.80
2022-11-13T22:41:13.075Z,33.50
2022-11-13T22:44:22.447Z,33.22
2022-11-13T22:47:26.719Z,34.03
2022-11-13T22:50:31.226Z,34.50
2022-11-13T22:53:36.198Z,33.35
2022-11-13T22:56:41.639Z,33.88
2022-11-13T22:59:45.791Z,31.70
2022-11-13T23:02:50.389Z,32.85
2022-11-13T23:05:59.058Z,31.65
2022-11-13T23:09:04.400Z,37.25
2022-11-13T23:12:12.697Z,35.15
2022-11-13T23:15:16.874Z,33.65
2022-11-13T23:18:21.430Z,35.92
2022-11-13T23:21:29.943Z,35.88
2022-11-13T23:24:34.060Z,31.90
2022-11-13T23:27:38.590Z,27.83
2022-11-13T23:30:42.867Z,33.55
2022-11-13T23:33:47.502Z,29.90
2022-11-13T23:36:52.287Z,29.60
2022-11-13T23:39:56.783Z,28.77
2022-11-13T23:43:03.674Z,28.00
2022-11-13T23:46:07.860Z,32.33
2022-11-13T23:49:12.554Z,31.30
2022-11-13T23:52:16.688Z,26.73
2022-11-13T23:55:21.414Z,27.65
2022-11-13T23:58:26.301Z,31.38
